createdAt,value
2019-02-09T00:03:53.563Z,56.80
2019-02-09T00:08:12.130Z,56.70
2019-02-09T00:12:30.703Z,56.60
2019-02-09T00:16:49.197Z,56.50
2019-02-09T00:21:08.226Z,56.30
2019-02-09T00:25:27.173Z,56.10
2019-02-09T00:29:46.580Z,56.20
2019-02-09T00:34:05.352Z,56.00
2019-02-09T00:38:23.844Z,56.20
2019-02-09T00:42:42.417Z,56.20
2019-02-09T00:47:00.524Z,56.30
2019-02-09T00:51:18.852Z,56.40
2019-02-09T00:55:36.960Z,56.70
2019-02-09T00:59:55.162Z,56.40
2019-02-09T01:04:13.596Z,56.40
2019-02-09T01:08:35.036Z,56.60
2019-02-09T01:12:53.398Z,56.90
2019-02-09T01:17:11.576Z,57.00
2019-02-09T01:21:29.997Z,56.90
2019-02-09T01:25:48.146Z,56.90
2019-02-09T01:30:10.762Z,56.90
2019-02-09T01:34:29.759Z,56.70
2019-02-09T01:38:47.833Z,56.50
2019-02-09T01:43:06.289Z,56.50
2019-02-09T01:47:24.959Z,56.50
2019-02-09T01:51:43.414Z,56.50
2019-02-09T01:56:01.628Z,56.40
2019-02-09T02:00:26.143Z,56.40
2019-02-09T02:04:44.884Z,56.50
2019-02-09T02:09:03.279Z,56.30
2019-02-09T02:13:21.426Z,56.60
2019-02-09T02:17:40.498Z,56.50
2019-02-09T02:21:58.706Z,56.50
2019-02-09T02:26:17.444Z,56.40
2019-02-09T02:30:38.398Z,56.50
2019-02-09T02:34:56.705Z,56.40
2019-02-09T02:39:14.905Z,56.30
2019-02-09T02:43:33.035Z,56.30
2019-02-09T02:47:51.444Z,56.10
2019-02-09T02:52:09.989Z,56.10
2019-02-09T02:56:28.377Z,55.60
2019-02-09T03:00:46.652Z,55.60
2019-02-09T03:05:05.855Z,55.50
2019-02-09T03:09:23.966Z,55.40
2019-02-09T03:13:41.968Z,55.00
2019-02-09T03:18:00.579Z,55.30
2019-02-09T03:22:18.638Z,55.20
2019-02-09T03:26:36.926Z,56.00
2019-02-09T03:30:55.231Z,55.20
2019-02-09T03:35:14.278Z,55.30
2019-02-09T03:39:32.465Z,55.40
2019-02-09T03:43:50.719Z,55.10
2019-02-09T03:48:08.968Z,55.10
2019-02-09T03:52:27.162Z,55.20
2019-02-09T03:56:45.375Z,55.20
2019-02-09T04:01:03.959Z,55.00
2019-02-09T04:05:22.522Z,55.10
2019-02-09T04:09:41.008Z,55.30
2019-02-09T04:13:59.329Z,55.40
2019-02-09T04:18:17.365Z,55.90
2019-02-09T04:22:35.565Z,56.50
2019-02-09T04:26:53.870Z,57.00
2019-02-09T04:31:11.947Z,56.90
2019-02-09T04:35:30.745Z,56.90
2019-02-09T04:39:48.986Z,57.20
2019-02-09T04:44:07.714Z,57.40
2019-02-09T04:48:26.256Z,57.70
2019-02-09T04:52:44.397Z,57.90
2019-02-09T04:57:02.468Z,58.00
2019-02-09T05:01:20.729Z,58.20
2019-02-09T05:05:39.142Z,58.20
2019-02-09T05:09:57.501Z,58.20
2019-02-09T05:14:16.143Z,58.50
2019-02-09T05:18:34.491Z,59.10
2019-02-09T05:22:52.794Z,59.00
2019-02-09T05:27:11.138Z,58.90
2019-02-09T05:31:29.568Z,59.00
2019-02-09T05:35:49.580Z,59.00
2019-02-09T05:40:09.182Z,59.20
2019-02-09T05:44:27.391Z,59.40
2019-02-09T05:48:45.969Z,59.30
2019-02-09T05:53:03.996Z,59.60
2019-02-09T05:57:22.499Z,59.80
2019-02-09T06:01:42.031Z,59.70
2019-02-09T06:06:00.230Z,59.90
2019-02-09T06:10:18.756Z,59.50
2019-02-09T06:14:37.481Z,59.50
2019-02-09T06:18:56.560Z,59.70
2019-02-09T06:23:15.014Z,59.80
2019-02-09T06:27:33.173Z,59.60
2019-02-09T06:31:51.927Z,60.20
2019-02-09T06:36:10.422Z,60.00
2019-02-09T06:40:29.043Z,60.40
2019-02-09T06:44:47.150Z,60.30
2019-02-09T06:49:05.415Z,60.50
2019-02-09T06:53:23.827Z,61.00
2019-02-09T06:57:42.690Z,60.50
2019-02-09T07:02:01.155Z,60.70
2019-02-09T07:06:19.680Z,60.50
2019-02-09T07:10:38.032Z,60.20
2019-02-09T07:14:56.515Z,60.30
2019-02-09T07:19:14.642Z,60.40
2019-02-09T07:23:32.992Z,60.30
2019-02-09T07:27:51.409Z,60.30
2019-02-09T07:32:10.339Z,60.10
2019-02-09T07:36:28.399Z,59.70
2019-02-09T07:40:46.779Z,60.30
2019-02-09T07:45:05.793Z,60.30
2019-02-09T07:49:24.207Z,60.30
2019-02-09T07:53:42.301Z,60.30
2019-02-09T07:58:02.755Z,60.20
2019-02-09T08:02:21.297Z,60.30
2019-02-09T08:06:41.293Z,60.90
2019-02-09T08:10:59.397Z,60.30
2019-02-09T08:15:23.964Z,60.30
2019-02-09T08:19:42.252Z,60.40
2019-02-09T08:24:00.512Z,60.60
2019-02-09T08:28:18.764Z,60.80
2019-02-09T08:32:37.570Z,60.80
2019-02-09T08:36:55.964Z,61.80
2019-02-09T08:41:14.625Z,62.20
2019-02-09T08:45:33.434Z,62.00
2019-02-09T08:49:51.684Z,61.50
2019-02-09T08:54:11.535Z,61.10
2019-02-09T08:58:29.813Z,60.30
2019-02-09T09:02:49.142Z,61.20
2019-02-09T09:07:09.203Z,60.60
2019-02-09T09:11:27.446Z,59.90
2019-02-09T09:15:52.890Z,59.60
2019-02-09T09:20:17.497Z,59.10
2019-02-09T09:24:36.109Z,59.10
2019-02-09T09:28:58.193Z,59.00
2019-02-09T09:33:16.126Z,59.00
2019-02-09T09:37:34.217Z,58.70
2019-02-09T09:41:52.365Z,58.70
2019-02-09T09:46:11.493Z,58.50
2019-02-09T09:50:30.145Z,58.90
2019-02-09T09:54:48.321Z,59.00
2019-02-09T09:59:07.134Z,59.10
2019-02-09T10:03:25.680Z,59.00
2019-02-09T10:07:44.026Z,58.70
2019-02-09T10:12:02.328Z,58.80
2019-02-09T10:16:20.486Z,58.80
2019-02-09T10:20:38.760Z,59.10
2019-02-09T10:24:57.523Z,59.60
2019-02-09T10:29:16.696Z,59.70
2019-02-09T10:33:35.190Z,60.00
2019-02-09T10:37:53.758Z,60.30
2019-02-09T10:42:12.226Z,59.80
2019-02-09T10:46:30.392Z,59.80
2019-02-09T10:50:48.734Z,60.50
2019-02-09T10:55:07.441Z,60.40
2019-02-09T10:59:25.862Z,58.90
2019-02-09T11:03:44.111Z,57.90
2019-02-09T11:08:02.279Z,57.30
2019-02-09T11:12:20.591Z,57.90
2019-02-09T11:16:38.902Z,56.40
2019-02-09T11:20:57.116Z,56.60
2019-02-09T11:25:16.466Z,57.10
2019-02-09T11:29:34.768Z,57.90
2019-02-09T11:33:52.982Z,56.80
2019-02-09T11:38:11.570Z,56.20
2019-02-09T11:42:29.830Z,56.20
2019-02-09T11:46:48.312Z,56.10
2019-02-09T11:51:06.660Z,54.30
2019-02-09T11:55:24.918Z,55.30
2019-02-09T11:59:44.003Z,54.60
2019-02-09T12:04:06.430Z,54.40
2019-02-09T12:08:24.613Z,54.20
2019-02-09T12:12:43.281Z,54.50
2019-02-09T12:17:02.193Z,54.90
2019-02-09T12:21:20.589Z,55.30
2019-02-09T12:25:40.042Z,55.40
2019-02-09T12:29:58.993Z,56.00
2019-02-09T12:34:18.342Z,55.30
2019-02-09T12:38:36.470Z,54.90
2019-02-09T12:42:55.071Z,54.60
2019-02-09T12:47:13.380Z,54.60
2019-02-09T12:51:31.664Z,55.00
2019-02-09T12:55:50.046Z,54.20
2019-02-09T13:00:15.720Z,53.70
2019-02-09T13:04:33.938Z,53.30
2019-02-09T13:08:52.141Z,53.20
2019-02-09T13:13:11.219Z,52.60
2019-02-09T13:17:29.590Z,52.30
2019-02-09T13:21:47.814Z,52.20
2019-02-09T13:26:06.152Z,51.90
2019-02-09T13:30:29.491Z,51.70
2019-02-09T13:34:47.691Z,52.10
2019-02-09T13:39:08.776Z,52.10
2019-02-09T13:43:27.002Z,52.60
2019-02-09T13:47:45.473Z,52.30
2019-02-09T13:52:03.682Z,52.00
2019-02-09T13:56:22.498Z,52.70
2019-02-09T14:00:40.859Z,52.80
2019-02-09T14:04:59.079Z,52.10
2019-02-09T14:09:17.879Z,51.80
2019-02-09T14:13:36.650Z,52.10
2019-02-09T14:17:55.618Z,51.60
2019-02-09T14:22:13.668Z,51.90
2019-02-09T14:26:31.822Z,52.00
2019-02-09T14:30:50.091Z,52.40
2019-02-09T14:35:09.275Z,52.20
2019-02-09T14:39:27.708Z,52.40
2019-02-09T14:43:46.353Z,52.30
2019-02-09T14:48:04.819Z,52.30
2019-02-09T14:52:23.791Z,52.30
2019-02-09T14:56:42.051Z,52.40
2019-02-09T15:01:00.358Z,52.50
2019-02-09T15:05:19.122Z,52.40
2019-02-09T15:09:37.294Z,52.20
2019-02-09T15:13:56.627Z,52.40
2019-02-09T15:18:15.043Z,52.40
2019-02-09T15:22:33.055Z,52.60
2019-02-09T15:26:51.494Z,52.50
2019-02-09T15:31:10.146Z,52.40
2019-02-09T15:35:28.415Z,52.60
2019-02-09T15:39:46.668Z,52.60
2019-02-09T15:44:05.189Z,52.60
2019-02-09T15:48:23.326Z,52.30
2019-02-09T15:52:42.833Z,52.60
2019-02-09T15:57:00.998Z,53.20
2019-02-09T16:01:19.402Z,52.70
2019-02-09T16:05:38.270Z,52.70
2019-02-09T16:09:56.610Z,52.80
2019-02-09T16:14:14.741Z,52.80
2019-02-09T16:18:33.381Z,53.00
2019-02-09T16:22:52.405Z,53.10
2019-02-09T16:27:12.195Z,53.30
2019-02-09T16:31:31.108Z,53.30
2019-02-09T16:35:49.681Z,53.20
2019-02-09T16:40:11.155Z,53.00
2019-02-09T16:44:30.458Z,53.00
2019-02-09T16:48:48.783Z,53.00
2019-02-09T16:53:16.887Z,52.90
2019-02-09T16:57:36.568Z,52.90
2019-02-09T17:01:55.807Z,52.60
2019-02-09T17:06:14.242Z,53.50
2019-02-09T17:10:32.748Z,53.00
2019-02-09T17:14:51.665Z,52.90
2019-02-09T17:19:09.961Z,52.90
2019-02-09T17:23:28.109Z,53.00
2019-02-09T17:27:47.085Z,52.90
2019-02-09T17:32:05.661Z,52.90
2019-02-09T17:36:28.588Z,52.80
2019-02-09T17:40:48.704Z,52.60
2019-02-09T17:45:11.836Z,52.60
2019-02-09T17:49:30.012Z,52.50
2019-02-09T17:53:48.167Z,52.60
2019-02-09T17:58:07.341Z,52.30
2019-02-09T18:02:26.020Z,52.50
2019-02-09T18:06:44.937Z,52.40
2019-02-09T18:11:03.618Z,52.10
2019-02-09T18:15:21.989Z,52.30
2019-02-09T18:19:40.435Z,52.40
2019-02-09T18:23:58.848Z,52.20
2019-02-09T18:28:17.149Z,52.10
2019-02-09T18:32:35.911Z,51.80
2019-02-09T18:36:54.965Z,51.90
2019-02-09T18:41:13.091Z,51.90
2019-02-09T18:45:31.715Z,51.90
2019-02-09T18:49:49.919Z,52.00
2019-02-09T18:54:08.115Z,52.00
2019-02-09T18:58:26.876Z,52.00
2019-02-09T19:02:45.057Z,51.90
2019-02-09T19:07:03.534Z,52.00
2019-02-09T19:11:22.276Z,52.00
2019-02-09T19:15:40.968Z,51.60
2019-02-09T19:19:59.479Z,52.00
2019-02-09T19:24:18.006Z,52.00
2019-02-09T19:28:36.562Z,51.90
2019-02-09T19:32:55.462Z,52.00
2019-02-09T19:37:13.633Z,52.10
2019-02-09T19:41:31.881Z,52.10
2019-02-09T19:45:50.542Z,52.10
2019-02-09T19:50:10.419Z,52.30
2019-02-09T19:54:29.223Z,52.30
2019-02-09T19:58:47.501Z,52.30
2019-02-09T20:03:07.138Z,52.40
2019-02-09T20:07:25.207Z,52.40
2019-02-09T20:11:43.476Z,52.40
2019-02-09T20:16:03.296Z,52.40
2019-02-09T20:20:21.727Z,52.40
2019-02-09T20:24:42.850Z,52.30
2019-02-09T20:29:01.213Z,52.40
2019-02-09T20:33:19.721Z,52.40
2019-02-09T20:37:37.860Z,52.40
2019-02-09T20:41:56.373Z,52.60
2019-02-09T20:46:16.270Z,52.70
2019-02-09T20:50:34.956Z,52.70
2019-02-09T20:54:53.028Z,52.80
2019-02-09T20:59:11.551Z,52.80
2019-02-09T21:03:31.605Z,53.00
2019-02-09T21:07:50.001Z,53.00
2019-02-09T21:12:08.190Z,53.10
2019-02-09T21:16:26.363Z,53.10
2019-02-09T21:20:44.589Z,53.20
2019-02-09T21:25:02.808Z,53.20
2019-02-09T21:29:21.173Z,53.20
2019-02-09T21:33:39.497Z,53.20
2019-02-09T21:37:57.816Z,53.20
2019-02-09T21:42:17.341Z,53.30
2019-02-09T21:46:36.245Z,53.40
2019-02-09T21:50:54.388Z,54.10
2019-02-09T21:55:13.783Z,54.20
2019-02-09T21:59:32.451Z,54.30
2019-02-09T22:03:50.911Z,54.20
2019-02-09T22:08:19.013Z,54.30
2019-02-09T22:12:31.868Z,54.40
2019-02-09T22:16:50.520Z,54.40
2019-02-09T22:21:09.273Z,54.40
2019-02-09T22:25:27.497Z,54.50
2019-02-09T22:29:45.741Z,54.50
2019-02-09T22:34:03.945Z,54.50
2019-02-09T22:38:22.738Z,54.50
2019-02-09T22:42:41.032Z,54.60
2019-02-09T22:46:59.111Z,54.80
2019-02-09T22:51:18.279Z,54.80
2019-02-09T22:55:36.582Z,54.90
2019-02-09T22:59:54.810Z,54.80
2019-02-09T23:05:04.297Z,55.00
2019-02-09T23:09:26.086Z,55.00
2019-02-09T23:13:44.461Z,55.00
2019-02-09T23:18:03.042Z,55.20
2019-02-09T23:22:22.762Z,55.10
2019-02-09T23:26:41.230Z,55.50
2019-02-09T23:31:00.028Z,55.10
2019-02-09T23:35:18.365Z,55.10
2019-02-09T23:39:36.807Z,55.10
2019-02-09T23:43:55.037Z,55.20
2019-02-09T23:48:13.646Z,55.20
2019-02-09T23:52:31.936Z,55.00
2019-02-09T23:56:50.507Z,55.10
